Elma, Washington
Current Conditions -  °F | °C
As of 7:53 PM on Friday 24 Oct 2014 (Local Time) from KSHN Reporting Station
Light Rain Light Rain  
Wind Chill: 51°   Ceiling: 6000
Heat Index: 51°   Visibility: 10mi
Dew Point: 47°   Wind: 5mph
Humidity: 86%   Direction: NA
Pressure: 29.81"   Gusts: NA
Location:  47°N, 123.41°W
Report Text: KSHN 250253Z AUTO VRB04KT 10SM -RA OVC060 11/08 A2981 RMK AO2 SLP097 P0001 60002 T01060083 58015 TSNO
Loading
Personal Weather Stations






























Interactive Weather Map
Tropical Storm Tracking
New forecast layout! Learn more

10-Day Weather Forecast

Advertisements
Track Severe Weather on mobile